sensor_id;sensor_type;location;lat;lon;timestamp;P1;durP1;ratioP1;P2;durP2;ratioP2
6249;SDS011;3158;52.148;11.568;2023-07-20T00:00:04;2.60;;;0.85;;
6249;SDS011;3158;52.148;11.568;2023-07-20T00:05:13;0.50;;;0.50;;
6249;SDS011;3158;52.148;11.568;2023-07-20T00:10:14;0.70;;;0.45;;
6249;SDS011;3158;52.148;11.568;2023-07-20T00:15:15;0.40;;;0.40;;
6249;SDS011;3158;52.148;11.568;2023-07-20T00:20:16;0.60;;;0.60;;
6249;SDS011;3158;52.148;11.568;2023-07-20T00:25:18;0.52;;;0.40;;
6249;SDS011;3158;52.148;11.568;2023-07-20T00:30:19;0.40;;;0.40;;
6249;SDS011;3158;52.148;11.568;2023-07-20T00:35:20;0.50;;;0.50;;
6249;SDS011;3158;52.148;11.568;2023-07-20T00:40:21;2.40;;;0.50;;
6249;SDS011;3158;52.148;11.568;2023-07-20T00:45:23;2.85;;;0.80;;
6249;SDS011;3158;52.148;11.568;2023-07-20T00:50:26;2.28;;;0.45;;
6249;SDS011;3158;52.148;11.568;2023-07-20T00:55:27;7.95;;;1.08;;
6249;SDS011;3158;52.148;11.568;2023-07-20T01:00:29;3.80;;;0.70;;
6249;SDS011;3158;52.148;11.568;2023-07-20T01:05:42;3.30;;;0.60;;
6249;SDS011;3158;52.148;11.568;2023-07-20T01:10:54;0.60;;;0.60;;
6249;SDS011;3158;52.148;11.568;2023-07-20T01:16:01;1.50;;;0.50;;
6249;SDS011;3158;52.148;11.568;2023-07-20T01:21:08;0.77;;;0.57;;
6249;SDS011;3158;52.148;11.568;2023-07-20T01:26:20;0.73;;;0.57;;
6249;SDS011;3158;52.148;11.568;2023-07-20T01:31:24;0.90;;;0.90;;
6249;SDS011;3158;52.148;11.568;2023-07-20T01:36:26;0.98;;;0.98;;
6249;SDS011;3158;52.148;11.568;2023-07-20T01:41:28;0.60;;;0.60;;
6249;SDS011;3158;52.148;11.568;2023-07-20T01:46:29;0.95;;;0.75;;
6249;SDS011;3158;52.148;11.568;2023-07-20T01:51:30;0.82;;;0.82;;
6249;SDS011;3158;52.148;11.568;2023-07-20T01:56:32;0.80;;;0.80;;
6249;SDS011;3158;52.148;11.568;2023-07-20T02:01:33;1.85;;;0.98;;
6249;SDS011;3158;52.148;11.568;2023-07-20T02:06:34;0.93;;;0.93;;
6249;SDS011;3158;52.148;11.568;2023-07-20T02:11:35;1.10;;;1.00;;
6249;SDS011;3158;52.148;11.568;2023-07-20T02:16:36;1.85;;;1.10;;
6249;SDS011;3158;52.148;11.568;2023-07-20T02:21:37;1.38;;;0.90;;
6249;SDS011;3158;52.148;11.568;2023-07-20T02:26:39;9.30;;;1.58;;
6249;SDS011;3158;52.148;11.568;2023-07-20T02:31:40;2.50;;;0.85;;
6249;SDS011;3158;52.148;11.568;2023-07-20T02:36:43;0.80;;;0.80;;
6249;SDS011;3158;52.148;11.568;2023-07-20T02:41:44;2.72;;;0.95;;
6249;SDS011;3158;52.148;11.568;2023-07-20T02:46:45;2.25;;;0.63;;
6249;SDS011;3158;52.148;11.568;2023-07-20T02:51:46;1.10;;;1.10;;
6249;SDS011;3158;52.148;11.568;2023-07-20T02:56:47;0.88;;;0.80;;
6249;SDS011;3158;52.148;11.568;2023-07-20T03:01:48;0.80;;;0.80;;
6249;SDS011;3158;52.148;11.568;2023-07-20T03:06:49;3.13;;;1.10;;
6249;SDS011;3158;52.148;11.568;2023-07-20T03:11:50;1.73;;;1.13;;
6249;SDS011;3158;52.148;11.568;2023-07-20T03:16:51;6.75;;;1.13;;
6249;SDS011;3158;52.148;11.568;2023-07-20T03:21:52;1.40;;;0.88;;
6249;SDS011;3158;52.148;11.568;2023-07-20T03:26:53;0.50;;;0.50;;
6249;SDS011;3158;52.148;11.568;2023-07-20T03:31:55;3.60;;;0.93;;
6249;SDS011;3158;52.148;11.568;2023-07-20T03:36:56;4.43;;;0.98;;
6249;SDS011;3158;52.148;11.568;2023-07-20T03:41:57;2.85;;;0.75;;
6249;SDS011;3158;52.148;11.568;2023-07-20T03:46:59;1.75;;;1.20;;
6249;SDS011;3158;52.148;11.568;2023-07-20T03:52:01;1.45;;;0.60;;
6249;SDS011;3158;52.148;11.568;2023-07-20T03:57:05;7.40;;;0.82;;
6249;SDS011;3158;52.148;11.568;2023-07-20T04:02:06;2.50;;;1.20;;
6249;SDS011;3158;52.148;11.568;2023-07-20T04:07:07;1.75;;;0.80;;
6249;SDS011;3158;52.148;11.568;2023-07-20T04:12:09;7.18;;;1.00;;
6249;SDS011;3158;52.148;11.568;2023-07-20T04:17:10;1.95;;;0.80;;
6249;SDS011;3158;52.148;11.568;2023-07-20T04:22:13;2.40;;;0.90;;
6249;SDS011;3158;52.148;11.568;2023-07-20T04:27:17;1.25;;;0.93;;
6249;SDS011;3158;52.148;11.568;2023-07-20T04:32:18;2.90;;;0.90;;
6249;SDS011;3158;52.148;11.568;2023-07-20T04:37:19;2.58;;;1.02;;
6249;SDS011;3158;52.148;11.568;2023-07-20T04:42:22;0.98;;;0.82;;
6249;SDS011;3158;52.148;11.568;2023-07-20T04:47:23;0.70;;;0.70;;
6249;SDS011;3158;52.148;11.568;2023-07-20T04:52:26;1.35;;;0.80;;
6249;SDS011;3158;52.148;11.568;2023-07-20T04:57:27;2.55;;;0.52;;
6249;SDS011;3158;52.148;11.568;2023-07-20T05:02:28;0.40;;;0.40;;
6249;SDS011;3158;52.148;11.568;2023-07-20T05:07:29;1.00;;;0.70;;
6249;SDS011;3158;52.148;11.568;2023-07-20T05:12:31;0.50;;;0.50;;
6249;SDS011;3158;52.148;11.568;2023-07-20T05:17:32;1.05;;;0.43;;
6249;SDS011;3158;52.148;11.568;2023-07-20T05:22:33;0.25;;;0.25;;
6249;SDS011;3158;52.148;11.568;2023-07-20T05:27:35;0.30;;;0.30;;
6249;SDS011;3158;52.148;11.568;2023-07-20T05:32:36;1.13;;;0.38;;
6249;SDS011;3158;52.148;11.568;2023-07-20T05:37:37;0.20;;;0.20;;
6249;SDS011;3158;52.148;11.568;2023-07-20T05:42:39;0.20;;;0.20;;
6249;SDS011;3158;52.148;11.568;2023-07-20T05:47:41;0.30;;;0.30;;
6249;SDS011;3158;52.148;11.568;2023-07-20T05:52:42;0.85;;;0.50;;
6249;SDS011;3158;52.148;11.568;2023-07-20T05:57:43;0.65;;;0.25;;
6249;SDS011;3158;52.148;11.568;2023-07-20T06:02:44;0.10;;;0.10;;
6249;SDS011;3158;52.148;11.568;2023-07-20T06:07:46;0.30;;;0.30;;
6249;SDS011;3158;52.148;11.568;2023-07-20T06:12:47;2.17;;;0.25;;
6249;SDS011;3158;52.148;11.568;2023-07-20T06:17:48;0.40;;;0.40;;
6249;SDS011;3158;52.148;11.568;2023-07-20T06:22:49;0.93;;;0.40;;
6249;SDS011;3158;52.148;11.568;2023-07-20T06:27:50;0.30;;;0.30;;
6249;SDS011;3158;52.148;11.568;2023-07-20T06:32:51;0.30;;;0.30;;
6249;SDS011;3158;52.148;11.568;2023-07-20T06:37:53;0.25;;;0.25;;
6249;SDS011;3158;52.148;11.568;2023-07-20T06:42:54;0.30;;;0.30;;
6249;SDS011;3158;52.148;11.568;2023-07-20T06:47:56;1.17;;;0.30;;
6249;SDS011;3158;52.148;11.568;2023-07-20T06:52:57;0.40;;;0.40;;
6249;SDS011;3158;52.148;11.568;2023-07-20T06:57:59;1.65;;;0.38;;
6249;SDS011;3158;52.148;11.568;2023-07-20T07:03:00;0.20;;;0.20;;
6249;SDS011;3158;52.148;11.568;2023-07-20T07:08:05;0.20;;;0.20;;
6249;SDS011;3158;52.148;11.568;2023-07-20T07:13:07;2.45;;;0.25;;
6249;SDS011;3158;52.148;11.568;2023-07-20T07:18:08;0.20;;;0.20;;
6249;SDS011;3158;52.148;11.568;2023-07-20T07:23:09;0.30;;;0.30;;
6249;SDS011;3158;52.148;11.568;2023-07-20T07:28:10;0.55;;;0.55;;
6249;SDS011;3158;52.148;11.568;2023-07-20T07:33:11;0.10;;;0.10;;
6249;SDS011;3158;52.148;11.568;2023-07-20T07:38:12;0.20;;;0.20;;
6249;SDS011;3158;52.148;11.568;2023-07-20T07:43:13;0.20;;;0.20;;
6249;SDS011;3158;52.148;11.568;2023-07-20T07:48:14;0.20;;;0.20;;
6249;SDS011;3158;52.148;11.568;2023-07-20T07:53:15;2.00;;;0.10;;
6249;SDS011;3158;52.148;11.568;2023-07-20T07:58:16;0.13;;;0.13;;
6249;SDS011;3158;52.148;11.568;2023-07-20T08:03:18;0.40;;;0.20;;
6249;SDS011;3158;52.148;11.568;2023-07-20T08:08:19;0.10;;;0.10;;
6249;SDS011;3158;52.148;11.568;2023-07-20T08:13:20;0.10;;;0.10;;
6249;SDS011;3158;52.148;11.568;2023-07-20T08:18:21;0.10;;;0.10;;
6249;SDS011;3158;52.148;11.568;2023-07-20T08:23:22;0.10;;;0.10;;
6249;SDS011;3158;52.148;11.568;2023-07-20T08:28:23;0.10;;;0.10;;
6249;SDS011;3158;52.148;11.568;2023-07-20T08:33:26;0.20;;;0.20;;
6249;SDS011;3158;52.148;11.568;2023-07-20T08:38:29;0.30;;;0.30;;
6249;SDS011;3158;52.148;11.568;2023-07-20T08:43:30;1.48;;;0.20;;
6249;SDS011;3158;52.148;11.568;2023-07-20T08:48:32;0.20;;;0.20;;
6249;SDS011;3158;52.148;11.568;2023-07-20T08:53:33;0.30;;;0.30;;
6249;SDS011;3158;52.148;11.568;2023-07-20T08:58:34;0.30;;;0.30;;
6249;SDS011;3158;52.148;11.568;2023-07-20T09:03:36;0.50;;;0.50;;
6249;SDS011;3158;52.148;11.568;2023-07-20T09:08:42;0.70;;;0.70;;
6249;SDS011;3158;52.148;11.568;2023-07-20T09:13:43;0.60;;;0.60;;
6249;SDS011;3158;52.148;11.568;2023-07-20T09:18:44;1.40;;;0.73;;
6249;SDS011;3158;52.148;11.568;2023-07-20T09:23:45;0.77;;;0.77;;
6249;SDS011;3158;52.148;11.568;2023-07-20T09:28:49;0.93;;;0.93;;
6249;SDS011;3158;52.148;11.568;2023-07-20T09:33:52;0.35;;;0.32;;
6249;SDS011;3158;52.148;11.568;2023-07-20T09:38:53;1.05;;;0.30;;
6249;SDS011;3158;52.148;11.568;2023-07-20T09:43:54;0.30;;;0.30;;
6249;SDS011;3158;52.148;11.568;2023-07-20T09:48:55;0.10;;;0.10;;
6249;SDS011;3158;52.148;11.568;2023-07-20T09:53:57;0.10;;;0.10;;
6249;SDS011;3158;52.148;11.568;2023-07-20T09:58:59;1.23;;;0.10;;
6249;SDS011;3158;52.148;11.568;2023-07-20T10:04:00;0.17;;;0.17;;
6249;SDS011;3158;52.148;11.568;2023-07-20T10:09:04;0.10;;;0.10;;
6249;SDS011;3158;52.148;11.568;2023-07-20T10:14:07;0.00;;;0.00;;
6249;SDS011;3158;52.148;11.568;2023-07-20T10:19:11;0.68;;;0.10;;
6249;SDS011;3158;52.148;11.568;2023-07-20T10:24:14;0.10;;;0.10;;
6249;SDS011;3158;52.148;11.568;2023-07-20T10:29:15;8.68;;;0.10;;
6249;SDS011;3158;52.148;11.568;2023-07-20T10:34:17;0.00;;;0.00;;
6249;SDS011;3158;52.148;11.568;2023-07-20T10:39:22;0.00;;;0.00;;
6249;SDS011;3158;52.148;11.568;2023-07-20T10:44:24;0.00;;;0.00;;
6249;SDS011;3158;52.148;11.568;2023-07-20T10:49:26;0.10;;;0.10;;
6249;SDS011;3158;52.148;11.568;2023-07-20T11:04:39;0.00;;;0.00;;
6249;SDS011;3158;52.148;11.568;2023-07-20T11:09:40;0.00;;;0.00;;
6249;SDS011;3158;52.148;11.568;2023-07-20T11:14:55;0.17;;;0.00;;
6249;SDS011;3158;52.148;11.568;2023-07-20T11:19:57;0.10;;;0.10;;
6249;SDS011;3158;52.148;11.568;2023-07-20T11:24:58;0.10;;;0.10;;
6249;SDS011;3158;52.148;11.568;2023-07-20T11:29:59;0.10;;;0.10;;
6249;SDS011;3158;52.148;11.568;2023-07-20T11:35:00;0.35;;;0.10;;
6249;SDS011;3158;52.148;11.568;2023-07-20T11:40:01;0.00;;;0.00;;
6249;SDS011;3158;52.148;11.568;2023-07-20T11:45:03;0.00;;;0.00;;
6249;SDS011;3158;52.148;11.568;2023-07-20T11:50:05;0.28;;;0.10;;
6249;SDS011;3158;52.148;11.568;2023-07-20T11:55:06;0.00;;;0.00;;
6249;SDS011;3158;52.148;11.568;2023-07-20T12:00:09;0.08;;;0.08;;
6249;SDS011;3158;52.148;11.568;2023-07-20T12:05:11;0.10;;;0.10;;
6249;SDS011;3158;52.148;11.568;2023-07-20T12:10:12;0.10;;;0.10;;
6249;SDS011;3158;52.148;11.568;2023-07-20T12:15:14;0.00;;;0.00;;
6249;SDS011;3158;52.148;11.568;2023-07-20T12:20:31;0.20;;;0.20;;
6249;SDS011;3158;52.148;11.568;2023-07-20T12:30:35;0.10;;;0.10;;
6249;SDS011;3158;52.148;11.568;2023-07-20T12:35:36;0.08;;;0.08;;
6249;SDS011;3158;52.148;11.568;2023-07-20T12:40:37;0.93;;;0.10;;
6249;SDS011;3158;52.148;11.568;2023-07-20T12:45:38;0.10;;;0.10;;
6249;SDS011;3158;52.148;11.568;2023-07-20T12:50:40;0.10;;;0.10;;
6249;SDS011;3158;52.148;11.568;2023-07-20T12:55:42;0.10;;;0.10;;
6249;SDS011;3158;52.148;11.568;2023-07-20T13:00:43;0.20;;;0.20;;
6249;SDS011;3158;52.148;11.568;2023-07-20T13:05:44;0.10;;;0.10;;
6249;SDS011;3158;52.148;11.568;2023-07-20T13:10:45;0.10;;;0.10;;
6249;SDS011;3158;52.148;11.568;2023-07-20T13:15:46;0.20;;;0.20;;
6249;SDS011;3158;52.148;11.568;2023-07-20T13:20:48;0.15;;;0.15;;
6249;SDS011;3158;52.148;11.568;2023-07-20T13:25:49;0.20;;;0.20;;
6249;SDS011;3158;52.148;11.568;2023-07-20T13:30:50;2.35;;;0.20;;
6249;SDS011;3158;52.148;11.568;2023-07-20T13:35:51;0.15;;;0.10;;
6249;SDS011;3158;52.148;11.568;2023-07-20T13:40:52;0.10;;;0.10;;
6249;SDS011;3158;52.148;11.568;2023-07-20T13:45:53;0.45;;;0.20;;
6249;SDS011;3158;52.148;11.568;2023-07-20T13:50:54;0.10;;;0.10;;
6249;SDS011;3158;52.148;11.568;2023-07-20T13:55:55;0.10;;;0.10;;
6249;SDS011;3158;52.148;11.568;2023-07-20T14:00:57;0.20;;;0.20;;
6249;SDS011;3158;52.148;11.568;2023-07-20T14:05:58;0.20;;;0.20;;
6249;SDS011;3158;52.148;11.568;2023-07-20T14:10:59;0.10;;;0.10;;
6249;SDS011;3158;52.148;11.568;2023-07-20T14:16:00;0.10;;;0.10;;
6249;SDS011;3158;52.148;11.568;2023-07-20T14:21:01;0.20;;;0.20;;
6249;SDS011;3158;52.148;11.568;2023-07-20T14:26:06;0.17;;;0.17;;
6249;SDS011;3158;52.148;11.568;2023-07-20T14:31:09;1.55;;;0.10;;
6249;SDS011;3158;52.148;11.568;2023-07-20T14:36:10;0.10;;;0.10;;
6249;SDS011;3158;52.148;11.568;2023-07-20T14:41:11;2.35;;;0.20;;
6249;SDS011;3158;52.148;11.568;2023-07-20T14:46:12;0.20;;;0.20;;
6249;SDS011;3158;52.148;11.568;2023-07-20T14:51:13;0.10;;;0.10;;
6249;SDS011;3158;52.148;11.568;2023-07-20T14:56:14;0.20;;;0.13;;
6249;SDS011;3158;52.148;11.568;2023-07-20T15:01:15;1.50;;;0.30;;
6249;SDS011;3158;52.148;11.568;2023-07-20T15:06:16;1.05;;;0.20;;
6249;SDS011;3158;52.148;11.568;2023-07-20T15:11:17;0.10;;;0.10;;
6249;SDS011;3158;52.148;11.568;2023-07-20T15:16:18;0.10;;;0.10;;
6249;SDS011;3158;52.148;11.568;2023-07-20T15:21:20;0.93;;;0.30;;
6249;SDS011;3158;52.148;11.568;2023-07-20T15:26:21;0.22;;;0.22;;
6249;SDS011;3158;52.148;11.568;2023-07-20T15:31:22;0.20;;;0.20;;
6249;SDS011;3158;52.148;11.568;2023-07-20T15:36:23;0.10;;;0.10;;
6249;SDS011;3158;52.148;11.568;2023-07-20T15:41:24;0.10;;;0.10;;
6249;SDS011;3158;52.148;11.568;2023-07-20T15:51:42;0.20;;;0.20;;
6249;SDS011;3158;52.148;11.568;2023-07-20T15:56:43;0.20;;;0.20;;
6249;SDS011;3158;52.148;11.568;2023-07-20T16:01:45;26.08;;;0.60;;
6249;SDS011;3158;52.148;11.568;2023-07-20T16:06:46;0.20;;;0.20;;
6249;SDS011;3158;52.148;11.568;2023-07-20T16:11:47;0.10;;;0.10;;
6249;SDS011;3158;52.148;11.568;2023-07-20T16:16:49;0.10;;;0.10;;
6249;SDS011;3158;52.148;11.568;2023-07-20T16:21:50;0.20;;;0.20;;
6249;SDS011;3158;52.148;11.568;2023-07-20T16:26:51;1.38;;;0.20;;
6249;SDS011;3158;52.148;11.568;2023-07-20T16:31:52;0.10;;;0.10;;
6249;SDS011;3158;52.148;11.568;2023-07-20T16:36:53;0.10;;;0.10;;
6249;SDS011;3158;52.148;11.568;2023-07-20T16:41:56;0.20;;;0.20;;
6249;SDS011;3158;52.148;11.568;2023-07-20T16:46:57;0.20;;;0.20;;
6249;SDS011;3158;52.148;11.568;2023-07-20T16:51:58;12.48;;;0.60;;
6249;SDS011;3158;52.148;11.568;2023-07-20T16:56:59;0.20;;;0.20;;
6249;SDS011;3158;52.148;11.568;2023-07-20T17:02:00;0.20;;;0.20;;
6249;SDS011;3158;52.148;11.568;2023-07-20T17:07:01;0.90;;;0.22;;
6249;SDS011;3158;52.148;11.568;2023-07-20T17:12:03;0.20;;;0.20;;
6249;SDS011;3158;52.148;11.568;2023-07-20T17:17:04;1.13;;;0.30;;
6249;SDS011;3158;52.148;11.568;2023-07-20T17:22:05;1.73;;;0.20;;
6249;SDS011;3158;52.148;11.568;2023-07-20T17:27:06;0.20;;;0.20;;
6249;SDS011;3158;52.148;11.568;2023-07-20T17:32:08;1.33;;;0.30;;
6249;SDS011;3158;52.148;11.568;2023-07-20T17:37:09;0.30;;;0.30;;
6249;SDS011;3158;52.148;11.568;2023-07-20T17:42:10;2.90;;;0.40;;
6249;SDS011;3158;52.148;11.568;2023-07-20T17:47:11;0.20;;;0.20;;
6249;SDS011;3158;52.148;11.568;2023-07-20T17:52:12;0.25;;;0.25;;
6249;SDS011;3158;52.148;11.568;2023-07-20T17:57:13;0.22;;;0.22;;
6249;SDS011;3158;52.148;11.568;2023-07-20T18:02:14;0.20;;;0.20;;
6249;SDS011;3158;52.148;11.568;2023-07-20T18:07:16;0.30;;;0.28;;
6249;SDS011;3158;52.148;11.568;2023-07-20T18:12:17;9.85;;;0.98;;
6249;SDS011;3158;52.148;11.568;2023-07-20T18:17:18;3.05;;;0.43;;
6249;SDS011;3158;52.148;11.568;2023-07-20T18:22:19;7.68;;;0.45;;
6249;SDS011;3158;52.148;11.568;2023-07-20T18:27:20;4.75;;;0.90;;
6249;SDS011;3158;52.148;11.568;2023-07-20T18:32:21;0.20;;;0.20;;
6249;SDS011;3158;52.148;11.568;2023-07-20T18:37:23;0.85;;;0.30;;
6249;SDS011;3158;52.148;11.568;2023-07-20T18:42:24;1.55;;;0.30;;
6249;SDS011;3158;52.148;11.568;2023-07-20T18:47:26;8.15;;;0.70;;
6249;SDS011;3158;52.148;11.568;2023-07-20T18:52:27;5.45;;;0.57;;
6249;SDS011;3158;52.148;11.568;2023-07-20T18:57:29;0.35;;;0.35;;
6249;SDS011;3158;52.148;11.568;2023-07-20T19:02:31;0.22;;;0.22;;
6249;SDS011;3158;52.148;11.568;2023-07-20T19:07:32;2.17;;;0.35;;
6249;SDS011;3158;52.148;11.568;2023-07-20T19:12:33;0.50;;;0.35;;
6249;SDS011;3158;52.148;11.568;2023-07-20T19:17:34;0.57;;;0.22;;
6249;SDS011;3158;52.148;11.568;2023-07-20T19:22:35;0.60;;;0.30;;
6249;SDS011;3158;52.148;11.568;2023-07-20T19:27:39;0.30;;;0.30;;
6249;SDS011;3158;52.148;11.568;2023-07-20T19:32:41;0.75;;;0.30;;
6249;SDS011;3158;52.148;11.568;2023-07-20T19:37:42;0.20;;;0.20;;
6249;SDS011;3158;52.148;11.568;2023-07-20T19:42:44;1.33;;;0.32;;
6249;SDS011;3158;52.148;11.568;2023-07-20T19:47:49;0.30;;;0.30;;
6249;SDS011;3158;52.148;11.568;2023-07-20T19:52:50;0.20;;;0.20;;
6249;SDS011;3158;52.148;11.568;2023-07-20T19:57:51;0.30;;;0.30;;
6249;SDS011;3158;52.148;11.568;2023-07-20T20:02:52;0.50;;;0.38;;
6249;SDS011;3158;52.148;11.568;2023-07-20T20:07:54;0.40;;;0.25;;
6249;SDS011;3158;52.148;11.568;2023-07-20T20:12:55;0.30;;;0.30;;
6249;SDS011;3158;52.148;11.568;2023-07-20T20:17:56;0.20;;;0.20;;
6249;SDS011;3158;52.148;11.568;2023-07-20T20:23:00;0.43;;;0.30;;
6249;SDS011;3158;52.148;11.568;2023-07-20T20:28:01;1.95;;;0.35;;
6249;SDS011;3158;52.148;11.568;2023-07-20T20:33:02;0.30;;;0.30;;
6249;SDS011;3158;52.148;11.568;2023-07-20T20:38:03;2.03;;;0.40;;
6249;SDS011;3158;52.148;11.568;2023-07-20T20:43:05;11.82;;;1.25;;
6249;SDS011;3158;52.148;11.568;2023-07-20T20:48:06;15.60;;;1.17;;
6249;SDS011;3158;52.148;11.568;2023-07-20T20:53:07;4.10;;;0.95;;
6249;SDS011;3158;52.148;11.568;2023-07-20T20:58:09;0.40;;;0.40;;
6249;SDS011;3158;52.148;11.568;2023-07-20T21:03:10;0.40;;;0.40;;
6249;SDS011;3158;52.148;11.568;2023-07-20T21:08:11;0.70;;;0.40;;
6249;SDS011;3158;52.148;11.568;2023-07-20T21:13:13;0.43;;;0.30;;
6249;SDS011;3158;52.148;11.568;2023-07-20T21:18:14;2.80;;;0.50;;
6249;SDS011;3158;52.148;11.568;2023-07-20T21:23:16;0.40;;;0.40;;
6249;SDS011;3158;52.148;11.568;2023-07-20T21:28:19;0.57;;;0.40;;
6249;SDS011;3158;52.148;11.568;2023-07-20T21:33:20;0.40;;;0.30;;
6249;SDS011;3158;52.148;11.568;2023-07-20T21:38:21;0.30;;;0.30;;
6249;SDS011;3158;52.148;11.568;2023-07-20T21:43:22;0.40;;;0.40;;
6249;SDS011;3158;52.148;11.568;2023-07-20T21:48:23;1.40;;;0.32;;
6249;SDS011;3158;52.148;11.568;2023-07-20T21:53:24;2.00;;;0.30;;
6249;SDS011;3158;52.148;11.568;2023-07-20T21:58:25;0.40;;;0.40;;
6249;SDS011;3158;52.148;11.568;2023-07-20T22:03:26;0.30;;;0.30;;
6249;SDS011;3158;52.148;11.568;2023-07-20T22:08:27;0.40;;;0.40;;
6249;SDS011;3158;52.148;11.568;2023-07-20T22:13:28;0.32;;;0.32;;
6249;SDS011;3158;52.148;11.568;2023-07-20T22:18:30;0.45;;;0.40;;
6249;SDS011;3158;52.148;11.568;2023-07-20T22:23:31;0.68;;;0.30;;
6249;SDS011;3158;52.148;11.568;2023-07-20T22:28:32;0.57;;;0.38;;
6249;SDS011;3158;52.148;11.568;2023-07-20T22:33:33;0.40;;;0.40;;
6249;SDS011;3158;52.148;11.568;2023-07-20T22:38:35;0.30;;;0.30;;
6249;SDS011;3158;52.148;11.568;2023-07-20T22:43:36;1.05;;;0.50;;
6249;SDS011;3158;52.148;11.568;2023-07-20T22:48:37;0.30;;;0.30;;
6249;SDS011;3158;52.148;11.568;2023-07-20T22:53:38;0.30;;;0.30;;
6249;SDS011;3158;52.148;11.568;2023-07-20T22:58:39;0.20;;;0.20;;
6249;SDS011;3158;52.148;11.568;2023-07-20T23:03:40;0.50;;;0.50;;
6249;SDS011;3158;52.148;11.568;2023-07-20T23:08:41;0.40;;;0.40;;
6249;SDS011;3158;52.148;11.568;2023-07-20T23:13:43;0.60;;;0.60;;
6249;SDS011;3158;52.148;11.568;2023-07-20T23:18:44;0.47;;;0.40;;
6249;SDS011;3158;52.148;11.568;2023-07-20T23:23:46;2.72;;;0.73;;
6249;SDS011;3158;52.148;11.568;2023-07-20T23:28:49;0.40;;;0.40;;
6249;SDS011;3158;52.148;11.568;2023-07-20T23:33:50;2.17;;;0.70;;
6249;SDS011;3158;52.148;11.568;2023-07-20T23:38:52;1.00;;;0.60;;
6249;SDS011;3158;52.148;11.568;2023-07-20T23:43:53;0.60;;;0.60;;
6249;SDS011;3158;52.148;11.568;2023-07-20T23:48:56;0.55;;;0.40;;
6249;SDS011;3158;52.148;11.568;2023-07-20T23:53:57;0.40;;;0.40;;
6249;SDS011;3158;52.148;11.568;2023-07-20T23:58:58;2.03;;;0.60;;
